createdAt,value
2023-02-25T00:00:11.063Z,3.90
2023-02-25T00:03:15.533Z,3.90
2023-02-25T00:06:22.278Z,5.13
2023-02-25T00:09:25.332Z,2.97
2023-02-25T00:12:29.682Z,2.70
2023-02-25T00:15:32.609Z,3.47
2023-02-25T00:18:35.507Z,2.50
2023-02-25T00:21:40.188Z,3.33
2023-02-25T00:24:43.276Z,2.63
2023-02-25T00:27:46.184Z,3.20
2023-02-25T00:30:49.159Z,2.63
2023-02-25T00:33:53.115Z,3.77
2023-02-25T00:36:57.401Z,3.40
2023-02-25T00:40:00.540Z,4.93
2023-02-25T00:43:03.415Z,4.47
2023-02-25T00:46:06.874Z,5.57
2023-02-25T00:49:09.760Z,4.10
2023-02-25T00:52:14.584Z,3.93
2023-02-25T00:55:17.611Z,3.43
2023-02-25T00:58:20.446Z,3.87
2023-02-25T01:01:26.217Z,4.33
2023-02-25T01:04:29.117Z,4.57
2023-02-25T01:07:33.614Z,3.17
2023-02-25T01:10:36.488Z,3.10
2023-02-25T01:13:39.379Z,2.73
2023-02-25T01:16:44.872Z,2.70
2023-02-25T01:19:47.705Z,3.00
2023-02-25T01:22:51.906Z,3.43
2023-02-25T01:25:54.766Z,3.07
2023-02-25T01:28:57.653Z,3.67
2023-02-25T01:32:02.914Z,3.33
2023-02-25T01:35:06.508Z,5.30
2023-02-25T01:38:10.708Z,3.13
2023-02-25T01:41:13.554Z,4.27
2023-02-25T01:44:18.818Z,3.30
2023-02-25T01:47:22.965Z,3.13
2023-02-25T01:50:31.558Z,3.67
2023-02-25T01:53:41.511Z,2.83
2023-02-25T01:56:49.430Z,3.40
2023-02-25T01:59:54.663Z,3.33
2023-02-25T02:02:59.043Z,3.00
2023-02-25T02:06:08.072Z,3.20
2023-02-25T02:09:15.044Z,3.10
2023-02-25T02:12:17.914Z,2.93
2023-02-25T02:15:20.793Z,3.50
2023-02-25T02:18:24.212Z,3.03
2023-02-25T02:21:46.620Z,2.63
2023-02-25T02:25:28.577Z,3.10
2023-02-25T02:29:13.112Z,2.50
2023-02-25T02:32:27.484Z,2.50
2023-02-25T02:35:37.324Z,2.47
2023-02-25T02:38:50.719Z,3.27
2023-02-25T02:42:01.847Z,1.60
2023-02-25T02:45:20.891Z,2.47
2023-02-25T02:48:31.253Z,2.43
2023-02-25T02:51:39.012Z,2.43
2023-02-25T02:54:45.253Z,2.47
2023-02-25T02:57:48.561Z,1.80
2023-02-25T03:00:57.920Z,2.47
2023-02-25T03:04:05.934Z,3.00
2023-02-25T03:07:12.369Z,1.63
2023-02-25T03:10:20.403Z,1.47
2023-02-25T03:13:23.715Z,2.00
2023-02-25T03:16:32.811Z,1.50
2023-02-25T03:19:42.644Z,1.10
2023-02-25T03:22:48.706Z,2.50
2023-02-25T03:25:55.210Z,2.30
2023-02-25T03:28:58.696Z,1.60
2023-02-25T03:32:07.365Z,1.77
2023-02-25T03:35:14.232Z,1.50
2023-02-25T03:38:21.788Z,1.97
2023-02-25T03:41:29.631Z,1.30
2023-02-25T03:44:36.833Z,2.50
2023-02-25T03:47:40.467Z,1.60
2023-02-25T03:50:49.503Z,1.87
2023-02-25T03:53:52.844Z,1.87
2023-02-25T03:56:56.923Z,1.60
2023-02-25T03:59:59.761Z,2.37
2023-02-25T04:03:02.959Z,2.57
2023-02-25T04:06:07.414Z,2.17
2023-02-25T04:09:10.281Z,2.70
2023-02-25T04:12:13.487Z,4.37
2023-02-25T04:15:16.331Z,2.47
2023-02-25T04:18:19.245Z,2.67
2023-02-25T04:21:31.870Z,2.90
2023-02-25T04:24:35.028Z,2.70
2023-02-25T04:27:37.891Z,3.77
2023-02-25T04:30:40.836Z,3.33
2023-02-25T04:33:44.156Z,3.37
2023-02-25T04:36:49.063Z,3.47
2023-02-25T04:39:51.928Z,3.23
2023-02-25T04:42:54.843Z,3.93
2023-02-25T04:45:57.845Z,3.60
2023-02-25T04:49:00.765Z,3.33
2023-02-25T04:52:05.216Z,3.70
2023-02-25T04:55:09.997Z,4.00
2023-02-25T04:58:13.140Z,3.97
2023-02-25T05:01:16.308Z,4.77
2023-02-25T05:04:19.205Z,4.17
2023-02-25T05:07:23.426Z,4.60
2023-02-25T05:10:26.269Z,4.63
2023-02-25T05:13:29.552Z,4.97
2023-02-25T05:16:32.447Z,4.93
2023-02-25T05:19:35.350Z,5.03
2023-02-25T05:22:40.174Z,6.27
2023-02-25T05:25:43.060Z,5.73
2023-02-25T05:28:45.951Z,5.90
2023-02-25T05:31:49.741Z,5.00
2023-02-25T05:34:52.703Z,6.30
2023-02-25T05:37:56.875Z,6.23
2023-02-25T05:41:01.233Z,6.13
2023-02-25T05:44:04.095Z,8.70
2023-02-25T05:47:07.644Z,6.50
2023-02-25T05:50:11.920Z,6.87
2023-02-25T05:53:16.091Z,6.57
2023-02-25T05:56:22.475Z,6.53
2023-02-25T05:59:25.567Z,6.47
2023-02-25T06:02:28.574Z,7.53
2023-02-25T06:05:31.564Z,6.50
2023-02-25T06:08:36.795Z,6.53
2023-02-25T06:11:39.640Z,7.33
2023-02-25T06:14:42.500Z,7.47
2023-02-25T06:17:45.439Z,6.73
2023-02-25T06:20:48.367Z,6.77
2023-02-25T06:23:53.504Z,8.30
2023-02-25T06:26:56.358Z,8.50
2023-02-25T06:30:00.398Z,14.20
2023-02-25T06:33:03.542Z,9.10
2023-02-25T06:36:07.685Z,8.00
2023-02-25T06:39:12.512Z,7.90
2023-02-25T06:42:15.371Z,7.00
2023-02-25T06:45:18.507Z,7.93
2023-02-25T06:48:21.336Z,6.90
2023-02-25T06:51:25.782Z,6.40
2023-02-25T06:54:29.999Z,8.33
2023-02-25T06:57:32.915Z,8.17
2023-02-25T07:00:37.657Z,7.80
2023-02-25T07:03:40.802Z,8.63
2023-02-25T07:06:43.721Z,6.80
2023-02-25T07:09:47.972Z,7.23
2023-02-25T07:12:50.819Z,8.30
2023-02-25T07:15:53.710Z,7.80
2023-02-25T07:18:56.632Z,7.73
2023-02-25T07:21:59.527Z,6.70
2023-02-25T07:25:04.282Z,7.10
2023-02-25T07:28:07.150Z,6.67
2023-02-25T07:31:12.715Z,6.70
2023-02-25T07:34:15.973Z,7.80
2023-02-25T07:37:18.813Z,6.73
2023-02-25T07:40:23.019Z,6.97
2023-02-25T07:43:25.922Z,7.07
2023-02-25T07:46:29.238Z,7.93
2023-02-25T07:49:32.138Z,7.53
2023-02-25T07:52:36.666Z,6.73
2023-02-25T07:55:44.681Z,7.70
2023-02-25T07:58:47.680Z,9.20
2023-02-25T08:01:50.551Z,7.50
2023-02-25T08:04:53.538Z,6.33
2023-02-25T08:07:56.905Z,7.17
2023-02-25T08:11:05.263Z,6.57
2023-02-25T08:14:08.252Z,5.63
2023-02-25T08:17:11.127Z,5.37
2023-02-25T08:20:14.333Z,4.70
2023-02-25T08:23:17.232Z,4.20
2023-02-25T08:26:23.504Z,5.03
2023-02-25T08:29:26.376Z,4.60
2023-02-25T08:32:29.378Z,6.27
2023-02-25T08:35:32.401Z,5.40
2023-02-25T08:38:35.227Z,4.00
2023-02-25T08:41:39.590Z,5.00
2023-02-25T08:44:42.676Z,4.23
2023-02-25T08:47:45.608Z,3.83
2023-02-25T08:50:48.459Z,8.60
2023-02-25T08:53:52.249Z,4.00
2023-02-25T08:56:57.232Z,4.83
2023-02-25T09:00:00.612Z,5.60
2023-02-25T09:03:03.483Z,5.60
2023-02-25T09:06:06.835Z,5.70
2023-02-25T09:09:11.620Z,3.67
2023-02-25T09:12:15.825Z,3.03
2023-02-25T09:15:18.737Z,7.40
2023-02-25T09:18:21.575Z,3.03
2023-02-25T09:21:25.341Z,3.53
2023-02-25T09:24:29.994Z,6.50
2023-02-25T09:27:34.728Z,3.40
2023-02-25T09:30:37.569Z,2.77
2023-02-25T09:33:42.728Z,3.93
2023-02-25T09:36:45.641Z,3.13
2023-02-25T09:39:49.039Z,3.00
2023-02-25T09:43:07.421Z,3.60
2023-02-25T09:46:14.449Z,2.87
2023-02-25T09:49:26.905Z,3.53
2023-02-25T09:52:33.850Z,3.77
2023-02-25T09:55:39.846Z,4.03
2023-02-25T09:58:46.826Z,2.60
2023-02-25T10:01:56.777Z,6.00
2023-02-25T10:05:16.363Z,2.33
2023-02-25T10:08:25.474Z,3.40
2023-02-25T10:11:42.942Z,2.40
2023-02-25T10:15:05.975Z,3.43
2023-02-25T10:18:22.108Z,1.77
2023-02-25T10:21:39.374Z,3.40
2023-02-25T10:24:46.405Z,3.93
2023-02-25T10:27:55.096Z,3.40
2023-02-25T10:31:04.408Z,2.93
2023-02-25T10:34:20.888Z,2.03
2023-02-25T10:37:27.395Z,1.73
2023-02-25T10:40:30.333Z,3.83
2023-02-25T10:43:35.687Z,2.13
2023-02-25T10:46:43.549Z,3.07
2023-02-25T10:50:11.845Z,7.00
2023-02-25T10:53:17.108Z,5.07
2023-02-25T10:56:21.400Z,2.73
2023-02-25T10:59:30.803Z,6.87
2023-02-25T11:02:41.399Z,4.00
2023-02-25T11:05:44.897Z,1.77
2023-02-25T11:08:47.818Z,4.40
2023-02-25T11:11:55.117Z,4.67
2023-02-25T11:14:57.980Z,4.77
2023-02-25T11:18:07.210Z,3.63
2023-02-25T11:21:13.471Z,1.77
2023-02-25T11:24:18.483Z,1.50
2023-02-25T11:27:31.126Z,2.33
2023-02-25T11:30:37.556Z,1.97
2023-02-25T11:33:46.760Z,3.33
2023-02-25T11:36:51.215Z,3.93
2023-02-25T11:39:55.857Z,1.87
2023-02-25T11:43:04.667Z,3.83
2023-02-25T11:46:11.840Z,3.10
2023-02-25T11:49:21.815Z,3.30
2023-02-25T11:52:33.489Z,4.20
2023-02-25T11:55:45.516Z,2.40
2023-02-25T11:59:04.286Z,4.83
2023-02-25T12:02:24.895Z,5.20
2023-02-25T12:05:50.391Z,6.07
2023-02-25T12:09:29.190Z,1.43
2023-02-25T12:13:02.956Z,2.50
2023-02-25T12:16:28.500Z,0.63
2023-02-25T12:20:04.752Z,3.77
2023-02-25T12:23:43.766Z,2.47
2023-02-25T12:27:28.671Z,0.60
2023-02-25T12:31:08.064Z,0.93
2023-02-25T12:34:30.316Z,1.70
2023-02-25T12:37:47.041Z,1.17
2023-02-25T12:41:09.878Z,1.07
2023-02-25T12:44:38.758Z,1.57
2023-02-25T12:47:53.463Z,1.20
2023-02-25T12:51:17.577Z,2.00
2023-02-25T12:54:34.625Z,1.10
2023-02-25T12:57:49.915Z,0.73
2023-02-25T13:01:22.324Z,2.10
2023-02-25T13:04:58.167Z,2.83
2023-02-25T13:08:45.479Z,2.87
2023-02-25T13:12:13.409Z,8.27
2023-02-25T13:15:23.412Z,1.80
2023-02-25T13:18:36.763Z,1.27
2023-02-25T13:21:56.204Z,0.60
2023-02-25T13:25:11.616Z,2.00
2023-02-25T13:28:25.845Z,1.50
2023-02-25T13:31:41.123Z,2.20
2023-02-25T13:34:49.788Z,2.07
2023-02-25T13:38:03.498Z,2.70
2023-02-25T13:41:36.654Z,2.07
2023-02-25T13:44:56.355Z,0.50
2023-02-25T13:48:22.898Z,0.90
2023-02-25T13:52:14.676Z,1.60
2023-02-25T13:55:46.350Z,0.60
2023-02-25T13:59:18.103Z,1.00
2023-02-25T14:02:57.289Z,2.40
2023-02-25T14:06:19.364Z,1.20
2023-02-25T14:09:41.308Z,3.23
2023-02-25T14:12:54.774Z,3.30
2023-02-25T14:16:08.219Z,2.37
2023-02-25T14:19:31.420Z,1.17
2023-02-25T14:22:41.295Z,2.10
2023-02-25T14:25:58.084Z,1.60
2023-02-25T14:29:18.672Z,1.10
2023-02-25T14:32:33.228Z,3.07
2023-02-25T14:35:56.433Z,5.63
2023-02-25T14:39:14.831Z,1.93
2023-02-25T14:42:39.444Z,1.57
2023-02-25T14:45:48.201Z,1.33
2023-02-25T14:49:00.403Z,2.00
2023-02-25T14:52:27.258Z,1.30
2023-02-25T14:55:43.816Z,1.20
2023-02-25T14:59:24.175Z,4.77
2023-02-25T15:02:51.198Z,2.10
2023-02-25T15:06:11.229Z,2.23
2023-02-25T15:09:56.872Z,1.17
2023-02-25T15:13:26.861Z,1.30
2023-02-25T15:17:20.704Z,2.77
2023-02-25T15:20:41.927Z,2.60
2023-02-25T15:23:52.270Z,6.67
2023-02-25T15:26:56.659Z,2.20
2023-02-25T15:30:02.782Z,3.00
2023-02-25T15:33:23.744Z,1.47
2023-02-25T15:36:41.775Z,4.57
2023-02-25T15:39:50.279Z,1.80
2023-02-25T15:42:55.183Z,1.53
2023-02-25T15:46:44.435Z,1.07
2023-02-25T15:49:48.800Z,2.57
2023-02-25T15:52:57.710Z,0.80
2023-02-25T15:56:25.313Z,1.90
2023-02-25T15:59:46.625Z,1.17
2023-02-25T16:02:58.502Z,3.87
2023-02-25T16:06:06.020Z,1.60
2023-02-25T16:09:11.411Z,2.33
2023-02-25T16:12:16.376Z,1.27
2023-02-25T16:15:26.331Z,0.80
2023-02-25T16:18:35.319Z,1.40
2023-02-25T16:21:42.033Z,1.03
2023-02-25T16:24:49.115Z,4.03
2023-02-25T16:28:00.182Z,1.53
2023-02-25T16:31:12.013Z,1.10
2023-02-25T16:34:22.831Z,2.00
2023-02-25T16:37:31.594Z,1.13
2023-02-25T16:40:39.003Z,1.50
2023-02-25T16:43:44.544Z,2.43
2023-02-25T16:46:51.930Z,4.87
2023-02-25T16:49:59.200Z,2.60
2023-02-25T16:53:04.358Z,3.20
2023-02-25T16:56:13.382Z,2.40
2023-02-25T16:59:19.887Z,3.27
2023-02-25T17:02:24.899Z,2.00
2023-02-25T17:05:31.051Z,9.40
2023-02-25T17:08:34.091Z,2.03
2023-02-25T17:11:36.988Z,2.97
2023-02-25T17:14:39.876Z,3.40
2023-02-25T17:17:45.320Z,22.40
2023-02-25T17:20:50.001Z,2.33
2023-02-25T17:23:53.609Z,1.97
2023-02-25T17:26:56.727Z,5.00
2023-02-25T17:29:59.853Z,1.87
2023-02-25T17:33:02.937Z,3.23
2023-02-25T17:36:14.003Z,2.83
2023-02-25T17:39:19.141Z,2.70
2023-02-25T17:42:30.378Z,1.50
2023-02-25T17:45:44.336Z,1.00
2023-02-25T17:48:52.943Z,0.40
2023-02-25T17:52:00.586Z,0.80
2023-02-25T17:55:06.196Z,0.80
2023-02-25T17:58:24.023Z,0.90
2023-02-25T18:01:30.914Z,1.27
2023-02-25T18:04:36.380Z,3.17
2023-02-25T18:07:42.341Z,1.37
2023-02-25T18:10:55.059Z,0.83
2023-02-25T18:13:58.444Z,1.63
2023-02-25T18:17:02.192Z,1.03
2023-02-25T18:20:07.269Z,2.33
2023-02-25T18:23:22.033Z,1.10
2023-02-25T18:26:26.670Z,1.47
2023-02-25T18:29:29.776Z,1.63
2023-02-25T18:32:32.645Z,2.47
2023-02-25T18:35:35.596Z,2.77
2023-02-25T18:38:41.702Z,2.80
2023-02-25T18:41:44.555Z,7.30
2023-02-25T18:44:48.491Z,1.60
2023-02-25T18:47:52.408Z,2.40
2023-02-25T18:50:58.454Z,2.77
2023-02-25T18:54:02.712Z,1.33
2023-02-25T18:57:12.279Z,1.80
2023-02-25T19:00:17.571Z,2.33
2023-02-25T19:03:27.204Z,2.47
2023-02-25T19:06:31.983Z,2.03
2023-02-25T19:09:36.249Z,1.97
2023-02-25T19:12:39.150Z,1.80
2023-02-25T19:15:42.050Z,2.83
2023-02-25T19:18:47.112Z,2.27
2023-02-25T19:21:50.011Z,2.00
2023-02-25T19:24:54.271Z,2.90
2023-02-25T19:27:58.069Z,1.90
2023-02-25T19:31:01.127Z,2.87
2023-02-25T19:34:04.341Z,3.27
2023-02-25T19:37:07.507Z,2.70
2023-02-25T19:40:14.569Z,2.63
2023-02-25T19:43:18.860Z,2.47
2023-02-25T19:46:21.786Z,3.17
2023-02-25T19:49:24.835Z,3.60
2023-02-25T19:52:27.770Z,3.27
2023-02-25T19:55:33.333Z,2.70
2023-02-25T19:58:36.244Z,3.23
2023-02-25T20:01:39.564Z,3.93
2023-02-25T20:04:43.060Z,2.70
2023-02-25T20:07:45.903Z,2.47
2023-02-25T20:10:50.114Z,1.60
2023-02-25T20:13:53.329Z,2.20
2023-02-25T20:16:57.053Z,1.60
2023-02-25T20:19:59.908Z,2.10
2023-02-25T20:23:02.781Z,1.77
2023-02-25T20:26:09.081Z,1.33
2023-02-25T20:29:12.144Z,2.03
2023-02-25T20:32:15.183Z,2.17
2023-02-25T20:35:21.290Z,1.40
2023-02-25T20:38:27.941Z,1.27
2023-02-25T20:41:32.461Z,1.80
2023-02-25T20:44:35.548Z,1.67
2023-02-25T20:47:38.708Z,1.30
2023-02-25T20:50:42.189Z,2.13
2023-02-25T20:53:45.726Z,1.50
2023-02-25T20:56:50.680Z,2.00
2023-02-25T20:59:55.018Z,1.60
2023-02-25T21:02:57.937Z,1.40
2023-02-25T21:06:00.938Z,1.77
2023-02-25T21:09:05.324Z,1.70
2023-02-25T21:12:10.363Z,1.77
2023-02-25T21:15:13.431Z,1.60
2023-02-25T21:18:16.568Z,2.67
2023-02-25T21:21:21.407Z,1.30
2023-02-25T21:24:24.321Z,2.07
2023-02-25T21:27:29.204Z,2.57
2023-02-25T21:30:32.164Z,2.23
2023-02-25T21:33:35.582Z,4.47
2023-02-25T21:36:38.464Z,1.60
2023-02-25T21:39:42.011Z,3.23
2023-02-25T21:42:46.209Z,2.43
2023-02-25T21:45:55.909Z,2.03
2023-02-25T21:48:59.517Z,2.43
2023-02-25T21:52:02.618Z,2.90
2023-02-25T21:55:06.237Z,2.20
2023-02-25T21:58:10.651Z,2.50
2023-02-25T22:01:15.237Z,2.40
2023-02-25T22:04:18.548Z,4.27
2023-02-25T22:07:21.919Z,3.40
2023-02-25T22:10:24.876Z,2.30
2023-02-25T22:13:33.552Z,2.77
2023-02-25T22:16:37.978Z,2.57
2023-02-25T22:19:40.819Z,2.80
2023-02-25T22:22:43.729Z,2.70
2023-02-25T22:25:46.581Z,3.20
2023-02-25T22:28:54.699Z,2.60
2023-02-25T22:31:57.641Z,3.00
2023-02-25T22:35:00.595Z,2.90
2023-02-25T22:38:03.450Z,2.20
2023-02-25T22:41:07.501Z,2.53
2023-02-25T22:44:11.770Z,1.83
2023-02-25T22:47:14.625Z,1.77
2023-02-25T22:50:17.889Z,1.60
2023-02-25T22:53:20.760Z,2.00
2023-02-25T22:56:24.902Z,1.87
2023-02-25T22:59:29.354Z,1.43
2023-02-25T23:02:32.229Z,1.30
2023-02-25T23:05:35.786Z,1.50
2023-02-25T23:08:39.026Z,1.77
2023-02-25T23:11:43.732Z,0.90
2023-02-25T23:14:47.914Z,1.17
2023-02-25T23:17:50.960Z,0.90
2023-02-25T23:20:53.955Z,0.80
2023-02-25T23:23:58.459Z,0.63
2023-02-25T23:27:01.444Z,0.77
2023-02-25T23:30:07.012Z,0.60
2023-02-25T23:33:12.375Z,0.90
2023-02-25T23:36:15.807Z,0.97
2023-02-25T23:39:18.778Z,1.07
2023-02-25T23:42:21.653Z,1.10
2023-02-25T23:45:25.860Z,1.10
2023-02-25T23:48:28.737Z,1.40
2023-02-25T23:51:32.068Z,1.03
2023-02-25T23:54:34.948Z,1.00
2023-02-25T23:57:37.895Z,1.63
